Time;durP1;ratioP1;P1;durP2;ratioP2;P2;SDS_P1;SDS_P2;PMS_P1;PMS_P2;Temp;Humidity;BMP_temperature;BMP_pressure;BME280_temperature;BME280_humidity;BME280_pressure;Samples;Min_cycle;Max_cycle;Signal;HPM_P1;HPM_P2
2021/03/05 00:02:17;;;;;;;2.92;1.30;;;10.00;70.90;;;;;;5060583;28;20032;-87
2021/03/05 00:04:43;;;;;;;4.82;2.03;;;10.00;71.00;;;;;;5043667;28;20044;-86
2021/03/05 00:07:10;;;;;;;4.68;1.63;;;10.00;71.00;;;;;;5064152;28;20032;-87
2021/03/05 00:09:36;;;;;;;2.17;1.02;;;9.90;71.00;;;;;;5045483;28;20033;-86
2021/03/05 00:12:02;;;;;;;3.47;1.25;;;9.90;71.10;;;;;;5052262;28;20052;-86
2021/03/05 00:14:28;;;;;;;3.38;1.67;;;9.90;71.10;;;;;;5068270;28;20040;-87
2021/03/05 00:16:54;;;;;;;2.40;0.93;;;9.90;71.10;;;;;;5055452;28;20033;-86
2021/03/05 00:19:20;;;;;;;4.47;1.90;;;9.80;71.00;;;;;;5054888;28;20036;-87
2021/03/05 00:21:46;;;;;;;5.35;1.75;;;9.80;71.10;;;;;;5067499;28;20029;-86
2021/03/05 00:24:12;;;;;;;4.68;1.23;;;9.80;71.20;;;;;;5034873;28;20044;-87
2021/03/05 00:26:39;;;;;;;4.38;1.20;;;9.80;71.20;;;;;;5049620;28;20405;-86
2021/03/05 00:29:05;;;;;;;3.60;1.20;;;9.80;71.30;;;;;;5056217;28;20033;-86
2021/03/05 00:31:31;;;;;;;8.73;1.58;;;9.70;71.30;;;;;;5059132;28;20040;-86
2021/03/05 00:33:57;;;;;;;5.32;1.65;;;9.70;71.30;;;;;;5041460;28;20035;-87
2021/03/05 00:36:23;;;;;;;11.25;1.38;;;9.70;71.30;;;;;;5052832;28;20029;-87
2021/03/05 00:38:49;;;;;;;0.77;0.28;;;9.60;71.30;;;;;;5037133;28;20049;-86
2021/03/05 00:41:15;;;;;;;5.57;1.83;;;9.60;71.50;;;;;;5056404;28;20072;-87
2021/03/05 00:43:41;;;;;;;0.40;0.13;;;9.50;71.70;;;;;;5056228;28;20025;-85
2021/03/05 00:46:07;;;;;;;3.55;0.80;;;9.50;71.80;;;;;;5053771;28;20394;-86
2021/03/05 00:48:33;;;;;;;4.55;1.90;;;9.40;71.90;;;;;;5053826;28;20020;-86
2021/03/05 00:50:59;;;;;;;1.60;0.73;;;9.30;72.00;;;;;;5051626;28;20048;-86
2021/03/05 00:53:25;;;;;;;2.17;1.42;;;9.30;72.00;;;;;;5056983;28;20029;-86
2021/03/05 00:55:52;;;;;;;1.60;0.75;;;9.30;71.90;;;;;;5052776;28;20029;-86
2021/03/05 00:58:18;;;;;;;11.52;1.63;;;9.30;72.00;;;;;;5053239;28;20478;-86
2021/03/05 01:00:44;;;;;;;2.40;0.80;;;9.30;72.00;;;;;;5054878;28;20051;-87
2021/03/05 01:03:10;;;;;;;4.78;1.65;;;9.30;72.00;;;;;;5053989;28;20491;-86
2021/03/05 01:05:36;;;;;;;5.70;1.17;;;9.30;72.00;;;;;;5034663;28;20044;-86
2021/03/05 01:08:02;;;;;;;9.75;1.85;;;9.20;71.90;;;;;;5035135;28;20045;-86
2021/03/05 01:10:28;;;;;;;2.70;1.25;;;9.20;72.00;;;;;;5036269;28;20037;-86
2021/03/05 01:12:55;;;;;;;10.25;1.33;;;9.20;72.10;;;;;;5047914;28;20377;-86
2021/03/05 01:15:21;;;;;;;3.83;1.45;;;9.10;72.10;;;;;;5065435;28;20021;-86
2021/03/05 01:17:47;;;;;;;4.13;1.73;;;9.10;72.20;;;;;;5066590;28;20032;-86
2021/03/05 01:20:15;;;;;;;4.10;1.48;;;9.00;72.20;;;;;;5055974;28;20041;-86
2021/03/05 01:22:41;;;;;;;6.43;2.92;;;9.00;72.20;;;;;;5056111;28;20043;-86
2021/03/05 01:25:09;;;;;;;2.25;1.42;;;9.00;72.20;;;;;;5053648;28;20484;-85
2021/03/05 01:27:35;;;;;;;0.20;0.15;;;9.00;72.20;;;;;;5063192;28;20473;-85
2021/03/05 01:30:03;;;;;;;2.50;1.15;;;8.90;72.20;;;;;;5049633;28;20049;-86
2021/03/05 01:32:29;;;;;;;2.83;1.00;;;8.90;72.30;;;;;;5054795;28;20025;-85
2021/03/05 01:34:55;;;;;;;6.32;1.60;;;9.00;72.30;;;;;;5054416;28;20370;-86
2021/03/05 01:37:21;;;;;;;1.88;1.02;;;8.90;72.30;;;;;;5054499;28;20025;-86
2021/03/05 01:39:47;;;;;;;5.15;2.05;;;8.90;72.30;;;;;;5058244;28;20504;-86
2021/03/05 01:42:14;;;;;;;3.63;1.00;;;8.90;72.30;;;;;;5051852;28;20041;-86
2021/03/05 01:44:40;;;;;;;4.50;0.90;;;9.00;72.30;;;;;;5056100;28;20060;-86
2021/03/05 01:47:06;;;;;;;4.38;1.10;;;9.00;72.30;;;;;;5059449;28;20052;-86
2021/03/05 01:49:32;;;;;;;6.28;2.15;;;9.00;72.30;;;;;;5057940;28;20032;-85
2021/03/05 01:51:58;;;;;;;3.67;1.95;;;8.90;72.30;;;;;;5054766;28;20043;-86
2021/03/05 01:54:24;;;;;;;4.20;1.15;;;8.90;72.30;;;;;;5051930;28;20021;-86
2021/03/05 01:56:51;;;;;;;4.15;1.70;;;8.90;72.40;;;;;;5054287;28;20481;-86
2021/03/05 01:59:43;;;;;;;2.58;0.75;;;8.90;72.50;;;;;;5053815;28;20501;-86
2021/03/05 02:02:09;;;;;;;3.67;1.20;;;8.90;72.50;;;;;;5052601;28;20405;-86
2021/03/05 02:04:36;;;;;;;5.70;0.65;;;8.90;72.50;;;;;;5054141;28;20048;-86
2021/03/05 02:07:03;;;;;;;3.08;1.65;;;8.80;72.60;;;;;;5055455;28;20032;-86
2021/03/05 02:09:30;;;;;;;7.47;1.80;;;8.80;72.60;;;;;;5052682;28;20025;-86
2021/03/05 02:11:56;;;;;;;6.28;1.52;;;8.80;72.70;;;;;;5060294;28;20031;-86
2021/03/05 02:14:22;;;;;;;2.92;0.22;;;8.80;72.70;;;;;;5054361;28;20035;-85
2021/03/05 02:17:24;;;;;;;3.13;0.88;;;8.70;72.60;;;;;;5053945;28;20032;-86
2021/03/05 02:20:03;;;;;;;3.33;1.20;;;8.80;72.70;;;;;;5053749;28;20036;-86
2021/03/05 02:22:41;;;;;;;8.07;1.90;;;8.70;72.80;;;;;;5059580;28;20031;-86
2021/03/05 02:25:32;;;;;;;7.07;2.08;;;8.70;72.80;;;;;;5058865;28;20421;-86
2021/03/05 02:28:29;;;;;;;2.80;1.35;;;8.70;72.80;;;;;;5055987;28;20033;-85
2021/03/05 02:31:26;;;;;;;5.30;2.50;;;8.60;72.90;;;;;;5068399;28;20032;-86
2021/03/05 02:34:13;;;;;;;5.07;0.90;;;8.60;72.90;;;;;;5057956;28;20039;-86
2021/03/05 02:36:52;;;;;;;7.03;2.60;;;8.60;72.90;;;;;;5058339;28;20063;-85
2021/03/05 02:39:41;;;;;;;1.48;1.10;;;8.60;72.80;;;;;;5035447;28;20051;-86
2021/03/05 02:42:09;;;;;;;0.75;0.25;;;8.70;72.80;;;;;;5042516;28;20490;-86
2021/03/05 02:44:40;;;;;;;2.05;0.52;;;8.60;72.70;;;;;;5042044;28;20029;-86
2021/03/05 02:47:07;;;;;;;3.20;1.00;;;8.60;72.90;;;;;;5058936;28;20040;-87
2021/03/05 02:49:34;;;;;;;7.88;2.05;;;8.60;72.90;;;;;;5057678;28;20474;-85
2021/03/05 02:52:06;;;;;;;2.90;1.00;;;8.60;72.90;;;;;;5057194;28;20020;-86
2021/03/05 02:54:33;;;;;;;1.95;1.70;;;8.70;73.00;;;;;;5068948;28;20020;-86
2021/03/05 02:56:59;;;;;;;0.00;0.00;;;8.60;72.90;;;;;;5037886;28;20032;-85
2021/03/05 02:59:25;;;;;;;1.02;0.52;;;8.70;72.90;;;;;;5058623;28;20374;-86
2021/03/05 03:01:51;;;;;;;4.72;1.73;;;8.60;72.90;;;;;;5056794;28;20047;-86
2021/03/05 03:04:17;;;;;;;1.52;0.63;;;8.60;73.00;;;;;;5027684;28;20032;-86
2021/03/05 03:06:44;;;;;;;4.35;1.33;;;8.60;72.90;;;;;;5043117;28;20032;-85
2021/03/05 03:09:11;;;;;;;1.77;0.55;;;8.70;73.00;;;;;;5052745;28;20033;-85
2021/03/05 03:11:39;;;;;;;4.00;0.77;;;8.70;73.00;;;;;;5054950;28;20554;-85
2021/03/05 03:14:05;;;;;;;0.50;0.50;;;8.70;73.00;;;;;;5051954;28;20037;-85
2021/03/05 03:16:31;;;;;;;1.63;0.73;;;8.70;73.00;;;;;;5050161;28;20040;-86
2021/03/05 03:18:58;;;;;;;2.35;0.75;;;8.70;73.00;;;;;;5051185;28;20107;-84
2021/03/05 03:21:25;;;;;;;3.92;0.93;;;8.70;73.00;;;;;;5050666;28;20040;-86
2021/03/05 03:23:51;;;;;;;2.72;0.77;;;8.80;73.00;;;;;;5034900;28;20029;-86
2021/03/05 03:26:17;;;;;;;1.23;0.85;;;8.80;73.00;;;;;;5038119;28;20033;-86
2021/03/05 03:28:43;;;;;;;5.63;1.77;;;8.80;73.00;;;;;;5050602;28;20025;-86
2021/03/05 03:31:14;;;;;;;4.15;1.60;;;8.80;73.10;;;;;;5050292;28;20501;-85
2021/03/05 03:33:40;;;;;;;5.63;0.75;;;8.80;73.10;;;;;;5051732;28;20363;-85
2021/03/05 03:36:07;;;;;;;1.80;1.33;;;8.80;73.10;;;;;;5050879;28;20048;-86
2021/03/05 03:38:33;;;;;;;4.63;1.35;;;8.80;73.10;;;;;;5045771;28;20040;-86
2021/03/05 03:41:00;;;;;;;2.92;1.08;;;8.80;73.10;;;;;;5055939;28;20060;-86
2021/03/05 03:43:26;;;;;;;3.35;0.90;;;8.80;73.10;;;;;;5056702;28;20037;-86
2021/03/05 03:45:52;;;;;;;6.28;2.40;;;8.80;73.10;;;;;;5039254;28;20040;-86
2021/03/05 03:48:18;;;;;;;4.03;0.47;;;8.80;73.10;;;;;;5036870;28;20508;-86
2021/03/05 03:50:57;;;;;;;5.28;1.15;;;8.80;73.10;;;;;;5056569;28;20044;-86
2021/03/05 03:53:25;;;;;;;6.80;0.90;;;8.90;73.10;;;;;;5048544;28;20359;-86
2021/03/05 03:55:52;;;;;;;3.47;1.00;;;8.90;73.10;;;;;;5040501;28;20055;-85
2021/03/05 03:58:28;;;;;;;2.67;1.67;;;8.90;73.10;;;;;;5056567;28;20033;-86
2021/03/05 04:00:56;;;;;;;3.13;0.30;;;8.90;73.10;;;;;;5055877;28;20040;-86
2021/03/05 04:03:24;;;;;;;0.35;0.20;;;8.90;73.10;;;;;;5053915;28;20461;-86
2021/03/05 04:05:50;;;;;;;2.30;0.85;;;8.90;73.10;;;;;;5038198;28;20024;-85
2021/03/05 04:08:16;;;;;;;2.10;0.77;;;8.90;73.10;;;;;;5019642;28;20038;-86
2021/03/05 04:10:42;;;;;;;1.27;0.73;;;8.90;73.10;;;;;;5060605;28;20389;-87
2021/03/05 04:13:09;;;;;;;0.68;0.45;;;8.80;73.00;;;;;;5046062;28;20025;-87
2021/03/05 04:15:36;;;;;;;2.58;0.80;;;8.80;73.00;;;;;;5054883;28;20033;-86
2021/03/05 04:18:03;;;;;;;0.40;0.25;;;8.80;73.00;;;;;;5036133;28;20393;-85
2021/03/05 04:20:29;;;;;;;5.78;1.40;;;8.70;73.10;;;;;;5057020;28;20405;-86
2021/03/05 04:22:55;;;;;;;4.80;1.52;;;8.70;73.10;;;;;;5037474;28;20029;-87
2021/03/05 04:25:21;;;;;;;4.78;1.05;;;8.70;73.10;;;;;;5055975;28;20032;-85
2021/03/05 04:27:47;;;;;;;0.93;0.15;;;8.70;73.00;;;;;;5057467;28;20016;-86
2021/03/05 04:30:14;;;;;;;0.80;0.25;;;8.80;73.00;;;;;;5051476;28;20039;-86
2021/03/05 04:32:41;;;;;;;1.75;0.88;;;8.80;72.90;;;;;;5066251;28;20025;-85
2021/03/05 04:35:09;;;;;;;18.20;0.60;;;8.70;72.70;;;;;;5036599;28;20025;-88
2021/03/05 04:37:36;;;;;;;0.75;0.30;;;8.70;72.60;;;;;;5048355;28;20032;-87
2021/03/05 04:40:03;;;;;;;1.67;1.05;;;8.60;72.60;;;;;;5053849;28;20042;-86
2021/03/05 04:42:29;;;;;;;2.20;0.60;;;8.60;72.60;;;;;;5064059;28;20072;-85
2021/03/05 04:44:56;;;;;;;0.55;0.40;;;8.60;72.60;;;;;;5053110;28;20532;-84
2021/03/05 04:47:22;;;;;;;1.92;0.60;;;8.60;72.40;;;;;;5068985;28;20029;-84
2021/03/05 04:49:48;;;;;;;0.20;0.20;;;8.60;72.40;;;;;;5056845;28;20481;-83
2021/03/05 04:52:14;;;;;;;0.17;0.05;;;8.60;72.30;;;;;;5034524;28;20038;-83
2021/03/05 04:54:40;;;;;;;5.38;1.73;;;8.60;72.30;;;;;;5026695;28;20469;-84
2021/03/05 04:57:06;;;;;;;2.25;0.28;;;8.60;72.20;;;;;;5051021;28;20043;-84
2021/03/05 04:59:32;;;;;;;0.57;0.25;;;8.50;72.10;;;;;;5056636;28;20040;-84
2021/03/05 05:01:58;;;;;;;0.28;0.28;;;8.50;72.00;;;;;;5053923;28;20041;-84
2021/03/05 05:04:24;;;;;;;6.60;0.80;;;8.50;72.00;;;;;;5055764;28;20059;-84
2021/03/05 05:06:50;;;;;;;0.52;0.40;;;8.50;71.90;;;;;;5057024;28;20029;-84
2021/03/05 05:09:18;;;;;;;0.00;0.00;;;8.50;71.80;;;;;;5051577;28;20037;-83
2021/03/05 05:11:44;;;;;;;0.10;0.10;;;8.50;71.70;;;;;;5021197;28;20037;-86
2021/03/05 05:14:10;;;;;;;1.15;0.38;;;8.50;71.60;;;;;;5055235;28;20035;-86
2021/03/05 05:16:37;;;;;;;1.20;0.15;;;8.50;71.60;;;;;;5055692;28;20088;-84
2021/03/05 05:19:03;;;;;;;0.85;0.45;;;8.50;71.60;;;;;;5054072;28;20496;-85
2021/03/05 05:21:29;;;;;;;0.70;0.30;;;8.50;72.20;;;;;;5053010;28;20424;-85
2021/03/05 05:23:55;;;;;;;0.00;0.00;;;8.50;71.30;;;;;;5019297;28;20052;-86
2021/03/05 05:26:21;;;;;;;3.72;1.65;;;8.50;71.20;;;;;;5055117;28;20469;-83
2021/03/05 05:28:47;;;;;;;5.10;0.75;;;8.50;71.10;;;;;;5056115;28;20040;-86
2021/03/05 05:31:13;;;;;;;0.57;0.38;;;8.50;71.20;;;;;;5040017;28;20469;-86
2021/03/05 05:33:39;;;;;;;2.03;0.57;;;8.50;71.10;;;;;;5061963;28;20048;-86
2021/03/05 05:36:06;;;;;;;2.13;0.17;;;8.50;71.10;;;;;;5049861;28;20421;-86
2021/03/05 05:38:32;;;;;;;0.32;0.00;;;8.50;71.00;;;;;;5055533;28;20032;-87
2021/03/05 05:41:01;;;;;;;0.40;0.20;;;8.50;70.80;;;;;;5059849;28;20055;-86
2021/03/05 05:43:30;;;;;;;0.28;0.25;;;8.50;70.80;;;;;;5041465;28;20041;-86
2021/03/05 05:46:02;;;;;;;0.10;0.10;;;8.50;70.80;;;;;;5029665;28;20037;-86
2021/03/05 05:48:29;;;;;;;1.38;0.80;;;8.50;70.80;;;;;;5052688;28;20474;-86
2021/03/05 05:50:55;;;;;;;0.20;0.00;;;8.50;70.70;;;;;;5051645;28;20059;-87
2021/03/05 05:53:21;;;;;;;0.30;0.17;;;8.50;70.70;;;;;;5038594;28;20037;-86
2021/03/05 05:55:47;;;;;;;1.35;0.43;;;8.50;70.60;;;;;;5054418;28;20409;-87
2021/03/05 05:58:13;;;;;;;1.40;0.45;;;8.50;70.60;;;;;;5054668;28;20044;-86
2021/03/05 06:00:39;;;;;;;0.52;0.38;;;8.40;70.60;;;;;;5036475;28;20059;-86
2021/03/05 06:03:07;;;;;;;2.70;0.75;;;8.50;70.60;;;;;;5049410;28;20040;-86
2021/03/05 06:05:33;;;;;;;0.43;0.22;;;8.50;70.50;;;;;;5018204;28;20482;-86
2021/03/05 06:07:59;;;;;;;0.20;0.05;;;8.40;70.30;;;;;;5044793;28;20041;-86
2021/03/05 06:10:25;;;;;;;0.20;0.03;;;8.50;70.40;;;;;;5065683;28;20028;-87
2021/03/05 06:12:51;;;;;;;1.30;0.75;;;8.50;70.30;;;;;;5065628;28;20489;-86
2021/03/05 06:15:18;;;;;;;0.43;0.20;;;8.40;70.20;;;;;;5050722;28;20060;-86
2021/03/05 06:17:47;;;;;;;0.22;0.00;;;8.40;70.20;;;;;;5054805;28;20025;-85
2021/03/05 06:20:15;;;;;;;3.25;0.65;;;8.40;70.20;;;;;;5064131;28;20032;-85
2021/03/05 06:22:41;;;;;;;0.43;0.30;;;8.40;70.20;;;;;;5058459;28;20041;-86
2021/03/05 06:25:08;;;;;;;5.03;0.80;;;8.40;70.20;;;;;;5055855;28;20040;-86
2021/03/05 06:27:35;;;;;;;1.23;0.85;;;8.40;70.20;;;;;;5054189;28;20029;-86
2021/03/05 06:30:01;;;;;;;0.00;0.00;;;8.40;70.10;;;;;;5052240;28;20032;-85
2021/03/05 06:32:40;;;;;;;0.70;0.50;;;8.40;70.10;;;;;;5067364;28;20040;-86
2021/03/05 06:35:07;;;;;;;11.13;0.20;;;8.30;70.10;;;;;;5055564;28;20049;-85
2021/03/05 06:37:43;;;;;;;1.05;0.30;;;8.30;70.10;;;;;;5053505;28;20041;-85
2021/03/05 06:40:09;;;;;;;0.10;0.03;;;8.40;70.20;;;;;;5054366;28;20032;-86
2021/03/05 06:42:49;;;;;;;0.20;0.10;;;8.30;70.00;;;;;;5054354;28;20049;-85
2021/03/05 06:45:16;;;;;;;1.30;0.47;;;8.30;70.10;;;;;;5036171;28;20037;-85
2021/03/05 06:48:08;;;;;;;0.95;0.38;;;8.30;70.00;;;;;;5053901;28;20048;-84
2021/03/05 06:50:34;;;;;;;;;;;8.30;70.10;;;;;;5054829;28;20055;-86
2021/03/05 06:53:00;;;;;;;0.50;0.13;;;8.30;70.10;;;;;;5055176;28;19912;-85
2021/03/05 06:55:26;;;;;;;0.10;0.03;;;8.30;70.00;;;;;;5055155;28;20021;-85
2021/03/05 06:57:53;;;;;;;0.57;0.32;;;8.30;70.00;;;;;;5053704;28;20039;-85
2021/03/05 07:00:21;;;;;;;0.10;0.00;;;8.30;70.10;;;;;;5050047;28;20311;-86
2021/03/05 07:02:47;;;;;;;1.58;0.52;;;8.30;70.10;;;;;;5050836;28;20044;-85
2021/03/05 07:05:15;;;;;;;0.98;0.55;;;8.30;70.10;;;;;;5054102;28;20406;-86
2021/03/05 07:07:45;;;;;;;2.05;0.50;;;8.30;70.10;;;;;;5055051;28;20025;-86
2021/03/05 07:10:14;;;;;;;1.08;0.75;;;8.30;70.10;;;;;;5053688;28;20033;-84
2021/03/05 07:13:01;;;;;;;0.82;0.35;;;8.30;70.10;;;;;;5055910;28;20413;-86
2021/03/05 07:15:27;;;;;;;0.57;0.20;;;8.30;70.10;;;;;;5053221;28;20037;-86
2021/03/05 07:17:54;;;;;;;0.00;0.00;;;8.40;70.20;;;;;;5045100;28;20414;-84
2021/03/05 07:20:20;;;;;;;0.45;0.28;;;8.40;70.10;;;;;;5061546;28;20043;-84
2021/03/05 07:22:47;;;;;;;0.47;0.20;;;8.40;70.10;;;;;;5056782;28;20044;-84
2021/03/05 07:25:17;;;;;;;0.47;0.20;;;8.30;70.10;;;;;;5037933;28;20239;-83
2021/03/05 07:27:44;;;;;;;0.40;0.30;;;8.30;70.20;;;;;;5057161;28;20036;-86
2021/03/05 07:30:13;;;;;;;0.60;0.17;;;8.30;70.20;;;;;;5051643;28;20040;-86
2021/03/05 07:32:47;;;;;;;0.50;0.43;;;8.40;70.30;;;;;;5070537;28;20044;-85
2021/03/05 07:35:14;;;;;;;0.00;0.00;;;8.40;70.20;;;;;;5040576;28;20045;-85
2021/03/05 07:38:00;;;;;;;1.38;0.47;;;8.40;70.20;;;;;;5052507;28;20037;-84
2021/03/05 07:40:28;;;;;;;1.20;0.98;;;8.40;70.20;;;;;;5057267;28;20402;-84
2021/03/05 07:42:57;;;;;;;0.50;0.40;;;8.40;70.30;;;;;;5056720;28;20056;-85
2021/03/05 07:45:23;;;;;;;0.00;0.00;;;8.40;70.40;;;;;;5036135;28;20040;-86
2021/03/05 07:47:51;;;;;;;0.50;0.25;;;8.40;70.40;;;;;;5035147;28;20025;-87
2021/03/05 07:50:21;;;;;;;1.13;0.10;;;8.40;70.50;;;;;;5049891;28;20493;-87
2021/03/05 07:52:47;;;;;;;0.15;0.10;;;8.40;70.50;;;;;;5053666;28;20035;-88
2021/03/05 07:55:14;;;;;;;2.47;0.47;;;8.40;70.50;;;;;;5050609;28;20043;-88
2021/03/05 07:57:45;;;;;;;0.68;0.22;;;8.40;70.60;;;;;;5050947;28;20389;-88
2021/03/05 08:00:16;;;;;;;0.87;0.10;;;8.40;70.50;;;;;;5035855;28;20025;-89
2021/03/05 08:02:51;;;;;;;;;;;8.40;70.70;;;;;;5052094;28;20334;-89
2021/03/05 08:05:37;;;;;;;0.00;0.00;;;8.50;70.50;;;;;;5065229;28;19938;-90
2021/03/05 08:08:31;;;;;;;0.38;0.38;;;8.50;70.40;;;;;;5066770;28;20029;-90
2021/03/05 08:10:58;;;;;;;0.85;0.30;;;8.50;70.40;;;;;;5047796;28;20033;-87
2021/03/05 08:13:51;;;;;;;0.10;0.10;;;8.40;70.30;;;;;;5047481;28;20021;-88
2021/03/05 08:16:29;;;;;;;0.40;0.20;;;8.40;70.50;;;;;;5048926;28;20394;-91
2021/03/05 08:19:04;;;;;;;0.32;0.08;;;8.40;70.60;;;;;;5050588;28;20025;-90
2021/03/05 08:24:31;;;;;;;0.00;0.00;;;8.50;70.60;;;;;;5054505;28;20041;-89
2021/03/05 08:27:01;;;;;;;0.47;0.17;;;8.50;70.40;;;;;;5050606;28;20385;-90
2021/03/05 08:29:46;;;;;;;0.10;0.00;;;8.50;70.40;;;;;;5050263;28;20041;-91
2021/03/05 08:32:30;;;;;;;0.00;0.00;;;8.50;70.40;;;;;;5054837;28;20040;-87
2021/03/05 08:34:57;;;;;;;0.00;0.00;;;8.50;70.40;;;;;;5072797;28;20033;-89
2021/03/05 08:37:31;;;;;;;1.67;0.10;;;8.50;70.30;;;;;;5051090;28;20025;-88
2021/03/05 08:40:22;;;;;;;0.00;0.00;;;8.50;70.30;;;;;;5055890;28;20024;-91
2021/03/05 08:42:52;;;;;;;0.40;0.40;;;8.50;70.20;;;;;;5050665;28;20113;-89
2021/03/05 08:45:20;;;;;;;0.00;0.00;;;8.60;70.10;;;;;;5051209;28;20331;-91
2021/03/05 08:47:49;;;;;;;0.82;0.22;;;8.60;70.10;;;;;;5036868;28;20469;-88
2021/03/05 08:50:17;;;;;;;1.65;0.70;;;8.60;70.00;;;;;;5058590;28;20029;-92
2021/03/05 08:52:44;;;;;;;4.40;1.17;;;8.60;69.80;;;;;;5038743;28;20029;-91
2021/03/05 08:55:11;;;;;;;0.35;0.10;;;8.50;69.70;;;;;;5047775;28;20022;-90
2021/03/05 08:57:41;;;;;;;0.20;0.10;;;8.50;69.80;;;;;;5050231;28;20032;-91
2021/03/05 09:00:10;;;;;;;0.30;0.22;;;8.50;69.80;;;;;;5048795;28;20033;-90
2021/03/05 09:02:36;;;;;;;0.68;0.22;;;8.50;69.70;;;;;;5034469;28;20048;-91
2021/03/05 09:05:03;;;;;;;0.85;0.17;;;8.50;69.80;;;;;;5030614;28;20379;-88
2021/03/05 09:07:29;;;;;;;0.08;0.08;;;8.50;69.80;;;;;;5063854;28;20040;-90
2021/03/05 09:09:55;;;;;;;0.00;0.00;;;8.50;69.70;;;;;;5050998;28;20025;-92
2021/03/05 09:12:22;;;;;;;2.00;0.17;;;8.50;69.70;;;;;;5050357;28;20036;-89
2021/03/05 09:15:02;;;;;;;0.20;0.20;;;8.50;69.60;;;;;;5052080;28;20033;-91
2021/03/05 09:17:28;;;;;;;0.57;0.57;;;8.50;69.60;;;;;;5035059;28;20029;-91
2021/03/05 09:19:54;;;;;;;0.20;0.10;;;8.50;69.50;;;;;;5031853;28;20017;-92
2021/03/05 09:22:21;;;;;;;1.75;0.80;;;8.50;69.70;;;;;;5052392;28;20048;-89
2021/03/05 09:24:57;;;;;;;0.13;0.05;;;8.50;69.50;;;;;;5050289;28;20508;-88
2021/03/05 09:27:24;;;;;;;0.00;0.00;;;8.50;69.30;;;;;;5050163;28;20036;-90
2021/03/05 09:29:50;;;;;;;0.00;0.00;;;8.40;68.90;;;;;;5050707;28;20033;-89
2021/03/05 09:32:16;;;;;;;0.00;0.00;;;8.30;68.80;;;;;;5025915;28;20032;-89
2021/03/05 09:34:58;;;;;;;0.00;0.00;;;8.30;68.80;;;;;;5041462;28;20029;-90
2021/03/05 09:37:29;;;;;;;0.00;0.00;;;8.30;68.80;;;;;;5053625;28;20025;-87
2021/03/05 09:39:57;;;;;;;0.38;0.10;;;8.30;68.70;;;;;;5031618;28;20064;-85
2021/03/05 09:42:46;;;;;;;0.10;0.03;;;8.30;68.50;;;;;;5052339;28;20064;-85
2021/03/05 09:45:13;;;;;;;0.00;0.00;;;8.30;67.90;;;;;;5046158;28;20021;-87
2021/03/05 09:47:47;;;;;;;0.00;0.00;;;8.30;67.60;;;;;;5038811;28;20382;-88
2021/03/05 09:50:20;;;;;;;0.70;0.10;;;8.30;67.40;;;;;;5054393;28;20044;-87
2021/03/05 09:52:46;;;;;;;0.20;0.00;;;8.40;67.30;;;;;;5054712;28;20390;-88
2021/03/05 09:55:28;;;;;;;1.10;0.68;;;8.40;67.10;;;;;;5051209;28;20044;-88
2021/03/05 09:57:54;;;;;;;0.43;0.30;;;8.50;66.60;;;;;;5050557;28;20502;-88
2021/03/05 10:00:27;;;;;;;0.15;0.10;;;8.50;65.90;;;;;;5052726;28;20485;-88
2021/03/05 10:03:07;;;;;;;0.00;0.00;;;8.50;65.40;;;;;;5068189;28;20052;-88
2021/03/05 10:05:37;;;;;;;0.00;0.00;;;8.50;65.30;;;;;;5054782;28;20036;-88
2021/03/05 10:08:10;;;;;;;0.63;0.43;;;8.40;64.90;;;;;;5055592;28;20028;-87
2021/03/05 10:11:12;;;;;;;0.00;0.00;;;8.40;64.90;;;;;;5034205;28;20533;-84
2021/03/05 10:13:44;;;;;;;1.55;0.05;;;8.50;65.10;;;;;;5056187;28;20024;-85
2021/03/05 10:16:23;;;;;;;0.10;0.10;;;8.60;64.90;;;;;;5055239;28;20051;-84
2021/03/05 10:18:52;;;;;;;0.00;0.00;;;8.60;64.80;;;;;;5053625;28;20021;-85
2021/03/05 10:21:19;;;;;;;0.05;0.00;;;8.70;64.70;;;;;;5050551;28;20045;-87
2021/03/05 10:23:45;;;;;;;0.00;0.00;;;8.70;64.70;;;;;;5053045;28;20490;-87
2021/03/05 10:26:27;;;;;;;0.22;0.15;;;8.60;64.30;;;;;;5037804;28;20021;-87
2021/03/05 10:29:08;;;;;;;0.13;0.03;;;8.60;64.40;;;;;;5055292;28;20044;-84
2021/03/05 10:31:48;;;;;;;0.00;0.00;;;8.60;64.50;;;;;;5059834;28;20029;-88
2021/03/05 10:34:21;;;;;;;0.00;0.00;;;8.70;64.20;;;;;;5057181;28;20029;-85
2021/03/05 10:36:48;;;;;;;2.08;0.20;;;8.60;64.00;;;;;;5037500;28;20029;-86
2021/03/05 10:39:14;;;;;;;0.43;0.20;;;8.60;63.90;;;;;;5048204;28;20041;-86
2021/03/05 10:41:40;;;;;;;0.00;0.00;;;8.60;64.00;;;;;;5037560;28;20045;-89
2021/03/05 10:44:06;;;;;;;0.43;0.30;;;8.60;64.10;;;;;;5031188;28;20041;-88
2021/03/05 10:46:32;;;;;;;0.65;0.03;;;8.60;64.10;;;;;;5049968;28;20033;-88
2021/03/05 10:48:58;;;;;;;0.43;0.20;;;8.70;64.10;;;;;;5030820;28;20043;-88
2021/03/05 10:51:24;;;;;;;0.30;0.30;;;8.70;64.00;;;;;;5038316;28;20045;-85
2021/03/05 10:53:50;;;;;;;0.13;0.03;;;8.60;63.90;;;;;;5056582;28;20037;-89
2021/03/05 10:56:17;;;;;;;0.20;0.20;;;8.60;64.00;;;;;;5024466;28;20055;-84
2021/03/05 10:58:43;;;;;;;0.35;0.05;;;8.70;64.00;;;;;;5058768;28;20036;-86
2021/03/05 11:01:09;;;;;;;7.10;0.28;;;8.70;63.90;;;;;;5056255;28;20048;-90
2021/03/05 11:03:35;;;;;;;1.02;0.32;;;8.60;63.90;;;;;;5037959;28;20047;-90
2021/03/05 11:06:01;;;;;;;0.03;0.00;;;8.60;63.90;;;;;;5055651;28;20033;-89
2021/03/05 11:08:27;;;;;;;0.30;0.10;;;8.70;64.00;;;;;;5056927;28;20406;-91
2021/03/05 11:10:53;;;;;;;0.65;0.08;;;8.70;63.90;;;;;;5056746;28;20033;-93
2021/03/05 11:13:19;;;;;;;0.90;0.32;;;8.70;63.90;;;;;;5056839;28;20488;-90
2021/03/05 11:15:46;;;;;;;0.25;0.00;;;8.70;64.00;;;;;;5056117;28;20031;-90
2021/03/05 11:18:12;;;;;;;0.00;0.00;;;8.70;64.10;;;;;;5052932;28;20032;-90
2021/03/05 11:20:38;;;;;;;0.75;0.20;;;8.60;64.30;;;;;;5057701;28;20032;-91
2021/03/05 11:23:04;;;;;;;0.10;0.05;;;8.60;64.50;;;;;;5057175;28;20068;-91
2021/03/05 11:25:30;;;;;;;0.17;0.17;;;8.50;64.70;;;;;;5040317;28;20037;-88
2021/03/05 11:27:56;;;;;;;2.17;0.90;;;8.50;64.90;;;;;;5040373;28;20035;-89
2021/03/05 11:30:23;;;;;;;0.05;0.05;;;8.50;65.10;;;;;;5054264;28;20036;-89
2021/03/05 11:32:49;;;;;;;0.17;0.05;;;8.50;65.20;;;;;;5038482;28;20336;-88
2021/03/05 11:35:15;;;;;;;1.13;0.10;;;8.40;65.20;;;;;;5040108;28;20425;-85
2021/03/05 11:37:41;;;;;;;0.43;0.10;;;8.40;65.40;;;;;;5051990;28;20040;-86
2021/03/05 11:40:07;;;;;;;0.32;0.10;;;8.30;65.40;;;;;;5056657;28;20040;-86
2021/03/05 11:42:34;;;;;;;0.13;0.00;;;8.30;65.50;;;;;;5037448;28;20477;-87
2021/03/05 11:45:04;;;;;;;0.00;0.00;;;8.40;65.60;;;;;;5053181;28;20052;-84
2021/03/05 11:47:32;;;;;;;0.00;0.00;;;8.30;65.50;;;;;;5057881;28;20044;-84
2021/03/05 11:49:58;;;;;;;0.22;0.22;;;8.30;65.70;;;;;;5056144;28;20025;-84
2021/03/05 11:52:24;;;;;;;0.20;0.15;;;8.20;65.70;;;;;;5056016;28;20032;-84
2021/03/05 11:54:50;;;;;;;0.10;0.10;;;8.30;65.80;;;;;;5056471;28;20033;-83
2021/03/05 11:57:16;;;;;;;0.17;0.10;;;8.40;66.40;;;;;;5053568;28;20021;-83
2021/03/05 11:59:42;;;;;;;0.00;0.00;;;8.40;65.50;;;;;;5055063;28;20415;-82
2021/03/05 12:02:09;;;;;;;0.10;0.00;;;8.30;65.40;;;;;;5054461;28;20037;-82
2021/03/05 12:04:35;;;;;;;0.00;0.00;;;8.30;65.50;;;;;;5061660;28;20465;-86
2021/03/05 12:07:01;;;;;;;0.08;0.08;;;8.40;65.50;;;;;;5066495;28;20025;-83
2021/03/05 12:09:27;;;;;;;0.15;0.03;;;8.40;65.40;;;;;;5067151;28;20405;-83
2021/03/05 12:11:53;;;;;;;0.00;0.00;;;8.40;65.40;;;;;;5037370;28;20040;-83
2021/03/05 12:14:19;;;;;;;0.00;0.00;;;8.30;65.30;;;;;;5057343;28;20488;-86
2021/03/05 12:16:46;;;;;;;1.65;0.17;;;8.30;65.30;;;;;;5037439;28;20044;-85
2021/03/05 12:19:12;;;;;;;0.15;0.00;;;8.30;65.40;;;;;;5055596;28;20029;-84
2021/03/05 12:21:38;;;;;;;0.00;0.00;;;8.20;65.40;;;;;;5054651;28;20024;-85
2021/03/05 12:24:05;;;;;;;0.10;0.10;;;8.30;65.50;;;;;;5052080;28;20063;-85
2021/03/05 12:26:31;;;;;;;0.00;0.00;;;8.30;65.50;;;;;;5039321;28;20489;-85
2021/03/05 12:28:57;;;;;;;0.15;0.15;;;8.20;65.40;;;;;;5058777;28;20029;-85
2021/03/05 12:31:23;;;;;;;0.13;0.13;;;8.20;65.30;;;;;;5060529;28;20041;-85
2021/03/05 12:33:50;;;;;;;1.45;0.50;;;8.20;65.30;;;;;;5055854;28;20397;-85
2021/03/05 12:36:16;;;;;;;0.22;0.05;;;8.20;65.30;;;;;;5052647;28;20029;-85
2021/03/05 12:38:42;;;;;;;0.00;0.00;;;8.20;65.30;;;;;;5051468;28;20483;-85
2021/03/05 12:41:08;;;;;;;0.00;0.00;;;8.30;65.30;;;;;;5037922;28;20036;-84
2021/03/05 12:43:34;;;;;;;0.00;0.00;;;8.30;65.20;;;;;;5056498;28;20040;-84
2021/03/05 12:46:00;;;;;;;0.00;0.00;;;8.30;65.10;;;;;;5054206;28;20502;-84
2021/03/05 12:48:26;;;;;;;0.05;0.05;;;8.40;65.10;;;;;;5036031;28;20044;-84
2021/03/05 12:50:52;;;;;;;0.17;0.17;;;8.40;64.90;;;;;;5052826;28;20538;-83
2021/03/05 12:53:18;;;;;;;0.00;0.00;;;8.50;64.80;;;;;;5055437;28;20029;-84
2021/03/05 12:55:44;;;;;;;0.00;0.00;;;8.50;64.50;;;;;;5055116;28;20021;-84
2021/03/05 12:58:11;;;;;;;0.75;0.35;;;8.50;64.40;;;;;;5055553;28;20433;-84
2021/03/05 13:00:37;;;;;;;1.27;0.22;;;8.60;64.30;;;;;;5036234;28;20035;-83
2021/03/05 13:03:03;;;;;;;0.30;0.00;;;8.60;64.00;;;;;;5051164;28;20033;-83
2021/03/05 13:05:29;;;;;;;0.22;0.00;;;8.70;64.00;;;;;;5051133;28;20409;-84
2021/03/05 13:07:55;;;;;;;1.60;0.43;;;8.70;63.80;;;;;;5052621;28;20032;-84
2021/03/05 13:10:22;;;;;;;0.00;0.00;;;8.70;63.50;;;;;;5054737;28;20028;-83